Aérodrome :
LOGIN :

S'inscrire | Disclaimer

   EN    FR    IT 

 










Légende :    VFR   VFR Marginal   IFR   IFR Intensif   IFR Très Intensif
Visi : 
Plafond : 
>= 8 km
>= 3000ft
5 à 8 km
1000 à 3000 ft
1500m à 5 km
500 à 1000 ft
800 à 1500m
200 à 500 ft
< 800m
< 200 ft
Symboles :   Orages  Brouillard  Fortes neiges  Fortes précipitations  Vent > 20 kt
SIGMETs :   Divers  Orages  Givrage  Turbulence  Onde Orograph.  Cendres Volcan.







- Altitude de l'aérodrome : 485 ft
- Code IATA : QSA


LELL - Sabadell

DERNIER METAR :
  • 290700Z 30004KT 260V340 9999 FEW020 20/10 Q1008

METARs EXPIRÉS :
  • 290630Z 30001KT 9999 FEW020 20/11 Q1008
  • 290600Z 00000KT 9999 FEW020 20/13 Q1008
  • 290530Z AUTO 00000KT 9999 NCD 18/14 Q1008
  • 290500Z AUTO 29004KT 9999 NCD 16/14 Q1007
  • 290430Z AUTO 29003KT 9999 NCD 16/14 Q1007

TAF TAF LELL
Valide du 29 à 03h jusqu'au 30 à 03h UTC


290200Z 2903/3003 27008KT 9999 SCT030 TX29/2913Z TN16/2905Z
TEMPO 2912/2916 25012G22KT
BECMG 2918/2921 VRB04KT
Pas de NOTAMs connus pour ce terrain.



MET'MAP, la Météo Aéronautique d'un coup d'oeil ! - Copyright ORBIFLY Décembre 2007 - Disclaimer

ORBIFLY MET'MAP TEAM :

Programmation & Développement : Alexandra Zaïnal
Conception & Développement : Baudouin d'Aumeries
Co-Programmation & Développement : Marc-Olivier Méhu
Soutien technique & logistique : Manuel Goepfert

Contact : metmap@orbifly.com




SOURCES & CREDITS :

   NOAA